Time,TemperatureF,DewpointF,PressureIn,WindDirection,WindDirectionDegrees,WindSpeedMPH,WindSpeedGustMPH,Humidity,HourlyPrecipIn,Conditions,Clouds,dailyrainin,SoftwareType,DateUTC
2014-08-30 00:01:00,75.5,68.9,30.23,East,100,0.0,0.0,80,0.00,CLR,,0.00,WeatherDisplay:10.37,2014-08-30 04:01:00,
2014-08-30 00:02:00,75.5,68.9,30.23,East,100,0.0,0.0,80,0.00,CLR,,0.00,WeatherDisplay:10.37,2014-08-30 04:02:00,
2014-08-30 00:06:00,75.6,69.0,30.23,SE,128,2.3,6.9,80,0.00,CLR,,0.00,WeatherDisplay:10.37,2014-08-30 04:06:00,
2014-08-30 00:07:00,75.5,69.3,30.23,East,92,1.3,6.9,81,0.00,CLR,,0.00,WeatherDisplay:10.37,2014-08-30 04:07:00,
2014-08-30 00:11:00,75.4,69.2,30.23,East,85,0.7,3.5,81,0.00,CLR,,0.00,WeatherDisplay:10.37,2014-08-30 04:11:00,
2014-08-30 00:12:00,75.6,69.4,30.23,ENE,66,0.9,4.6,81,0.00,CLR,,0.00,WeatherDisplay:10.37,2014-08-30 04:12:00,
2014-08-30 00:16:00,75.6,69.4,30.23,ESE,107,0.0,3.5,81,0.00,CLR,,0.00,WeatherDisplay:10.37,2014-08-30 04:16:00,
2014-08-30 00:17:00,75.5,69.3,30.23,ESE,107,0.0,0.0,81,0.00,CLR,,0.00,WeatherDisplay:10.37,2014-08-30 04:17:00,
2014-08-30 00:21:00,75.8,69.6,30.23,ENE,78,0.0,3.5,81,0.00,CLR,,0.00,WeatherDisplay:10.37,2014-08-30 04:21:00,
2014-08-30 00:22:00,75.6,69.4,30.23,ENE,78,0.0,0.0,81,0.00,CLR,,0.00,WeatherDisplay:10.37,2014-08-30 04:22:00,
2014-08-30 00:26:00,75.6,69.4,30.23,ENE,78,0.0,0.0,81,0.00,CLR,,0.00,WeatherDisplay:10.37,2014-08-30 04:26:00,
2014-08-30 00:27:00,75.5,69.3,30.23,ENE,78,0.0,0.0,81,0.00,CLR,,0.00,WeatherDisplay:10.37,2014-08-30 04:27:00,
2014-08-30 00:32:00,75.5,69.3,30.23,ENE,78,0.0,0.0,81,0.00,CLR,,0.00,WeatherDisplay:10.37,2014-08-30 04:32:00,
2014-08-30 00:33:00,75.4,69.2,30.23,ENE,78,0.0,0.0,81,0.00,CLR,,0.00,WeatherDisplay:10.37,2014-08-30 04:33:00,
2014-08-30 00:37:00,75.6,69.4,30.23,ENE,78,0.0,0.0,81,0.00,CLR,,0.00,WeatherDisplay:10.37,2014-08-30 04:37:00,
2014-08-30 00:38:00,75.5,69.3,30.23,ENE,78,0.0,0.0,81,0.00,CLR,,0.00,WeatherDisplay:10.37,2014-08-30 04:38:00,
2014-08-30 00:42:00,75.4,69.2,30.23,ENE,78,0.0,0.0,81,0.00,CLR,,0.00,WeatherDisplay:10.37,2014-08-30 04:42:00,
2014-08-30 00:43:00,75.5,69.3,30.23,ENE,76,0.2,3.4,81,0.00,CLR,,0.00,WeatherDisplay:10.37,2014-08-30 04:43:00,
2014-08-30 00:44:00,75.4,69.2,30.23,East,85,0.5,3.5,81,0.00,CLR,,0.00,WeatherDisplay:10.37,2014-08-30 04:44:00,
2014-08-30 00:47:00,75.3,69.4,30.23,East,85,0.0,0.0,82,0.00,CLR,,0.00,WeatherDisplay:10.37,2014-08-30 04:47:00,
2014-08-30 00:48:00,75.3,69.4,30.23,East,85,0.0,0.0,82,0.00,CLR,,0.00,WeatherDisplay:10.37,2014-08-30 04:48:00,
2014-08-30 00:49:00,75.3,69.4,30.23,ESE,106,1.9,5.8,82,0.00,CLR,,0.00,WeatherDisplay:10.37,2014-08-30 04:49:00,
2014-08-30 00:52:00,75.2,69.3,30.24,ESE,106,0.0,0.0,82,0.00,CLR,,0.00,WeatherDisplay:10.37,2014-08-30 04:52:00,
2014-08-30 00:53:00,75.5,69.6,30.24,ESE,106,0.0,0.0,82,0.00,CLR,,0.00,WeatherDisplay:10.37,2014-08-30 04:53:00,
2014-08-30 00:54:00,75.2,69.3,30.24,ESE,106,0.0,0.0,82,0.00,CLR,,0.00,WeatherDisplay:10.37,2014-08-30 04:54:00,
2014-08-30 00:57:00,75.4,69.5,30.24,ESE,106,0.0,0.0,82,0.00,CLR,,0.00,WeatherDisplay:10.37,2014-08-30 04:57:00,
2014-08-30 00:58:00,75.4,69.5,30.24,ESE,106,0.0,0.0,82,0.00,CLR,,0.00,WeatherDisplay:10.37,2014-08-30 04:58:00,
2014-08-30 00:59:00,75.3,69.4,30.24,ESE,106,0.0,0.0,82,0.00,CLR,,0.00,WeatherDisplay:10.37,2014-08-30 04:59:00,
2014-08-30 01:01:00,75.3,69.4,30.24,ESE,106,0.0,0.0,82,0.00,CLR,,0.00,WeatherDisplay:10.37,2014-08-30 05:01:00,
2014-08-30 01:02:00,75.4,69.5,30.24,ESE,106,0.0,0.0,82,0.00,CLR,,0.00,WeatherDisplay:10.37,2014-08-30 05:02:00,
2014-08-30 01:03:00,75.5,69.6,30.24,ESE,106,0.0,0.0,82,0.00,CLR,,0.00,WeatherDisplay:10.37,2014-08-30 05:03:00,
2014-08-30 01:04:00,75.3,69.4,30.24,ESE,106,0.0,0.0,82,0.00,CLR,,0.00,WeatherDisplay:10.37,2014-08-30 05:04:00,
2014-08-30 01:06:00,75.5,69.6,30.24,ESE,106,0.0,0.0,82,0.00,CLR,,0.00,WeatherDisplay:10.37,2014-08-30 05:06:00,
2014-08-30 01:08:00,75.4,69.5,30.24,ESE,106,0.0,0.0,82,0.00,CLR,,0.00,WeatherDisplay:10.37,2014-08-30 05:08:00,
2014-08-30 01:09:00,75.3,69.4,30.24,ESE,106,0.0,0.0,82,0.00,CLR,,0.00,WeatherDisplay:10.37,2014-08-30 05:09:00,
2014-08-30 01:10:00,75.5,69.6,30.24,ESE,106,0.0,0.0,82,0.00,CLR,,0.00,WeatherDisplay:10.37,2014-08-30 05:10:00,
2014-08-30 01:11:00,75.2,69.3,30.24,ESE,106,0.0,0.0,82,0.00,CLR,,0.00,WeatherDisplay:10.37,2014-08-30 05:11:00,
2014-08-30 01:13:00,75.2,69.3,30.24,ESE,106,0.0,0.0,82,0.00,CLR,,0.00,WeatherDisplay:10.37,2014-08-30 05:13:00,
2014-08-30 01:14:00,75.2,69.3,30.24,East,96,2.8,5.8,82,0.00,CLR,,0.00,WeatherDisplay:10.37,2014-08-30 05:14:00,
2014-08-30 01:15:00,75.2,69.3,30.24,East,96,0.8,5.8,82,0.00,CLR,,0.00,WeatherDisplay:10.37,2014-08-30 05:15:00,
2014-08-30 01:16:00,75.1,69.2,30.24,East,96,0.0,0.0,82,0.00,CLR,,0.00,WeatherDisplay:10.37,2014-08-30 05:16:00,
2014-08-30 01:18:00,75.2,69.3,30.24,East,96,0.0,0.0,82,0.00,CLR,,0.00,WeatherDisplay:10.37,2014-08-30 05:18:00,
2014-08-30 01:19:00,75.1,69.2,30.24,East,96,0.0,0.0,82,0.00,CLR,,0.00,WeatherDisplay:10.37,2014-08-30 05:19:00,
2014-08-30 01:20:00,75.1,69.2,30.24,East,96,0.0,0.0,82,0.00,CLR,,0.00,WeatherDisplay:10.37,2014-08-30 05:20:00,
2014-08-30 01:22:00,75.1,69.2,30.24,East,96,0.0,0.0,82,0.00,CLR,,0.00,WeatherDisplay:10.37,2014-08-30 05:22:00,
2014-08-30 01:23:00,75.0,69.1,30.24,East,96,0.0,0.0,82,0.00,CLR,,0.00,WeatherDisplay:10.37,2014-08-30 05:23:00,
2014-08-30 01:24:00,75.1,69.2,30.24,East,96,0.0,0.0,82,0.00,CLR,,0.00,WeatherDisplay:10.37,2014-08-30 05:24:00,
2014-08-30 01:25:00,75.0,69.1,30.24,East,96,0.0,0.0,82,0.00,CLR,,0.00,WeatherDisplay:10.37,2014-08-30 05:25:00,
2014-08-30 01:26:00,75.0,69.1,30.24,East,96,0.0,0.0,82,0.00,CLR,,0.00,WeatherDisplay:10.37,2014-08-30 05:26:00,
2014-08-30 01:27:00,75.0,69.1,30.24,East,96,0.0,0.0,82,0.00,CLR,,0.00,WeatherDisplay:10.37,2014-08-30 05:27:00,
2014-08-30 01:28:00,75.0,69.5,30.24,East,96,0.0,0.0,83,0.00,CLR,,0.00,WeatherDisplay:10.37,2014-08-30 05:28:00,
2014-08-30 01:29:00,74.9,69.4,30.24,East,96,0.0,0.0,83,0.00,CLR,,0.00,WeatherDisplay:10.37,2014-08-30 05:29:00,
2014-08-30 01:31:00,74.9,69.4,30.24,East,96,0.0,0.0,83,0.00,CLR,,0.00,WeatherDisplay:10.37,2014-08-30 05:31:00,
2014-08-30 01:33:00,75.0,69.5,30.24,East,96,0.0,0.0,83,0.00,CLR,,0.00,WeatherDisplay:10.37,2014-08-30 05:33:00,
2014-08-30 01:34:00,74.9,69.4,30.24,East,96,0.0,0.0,83,0.00,CLR,,0.00,WeatherDisplay:10.37,2014-08-30 05:34:00,
2014-08-30 01:36:00,74.8,69.3,30.25,East,96,0.0,0.0,83,0.00,CLR,,0.00,WeatherDisplay:10.37,2014-08-30 05:36:00,
2014-08-30 01:38:00,74.9,69.4,30.24,ENE,58,0.3,2.9,83,0.00,CLR,,0.00,WeatherDisplay:10.37,2014-08-30 05:38:00,
2014-08-30 01:39:00,74.9,69.4,30.24,ENE,58,0.5,3.5,83,0.00,CLR,,0.00,WeatherDisplay:10.37,2014-08-30 05:39:00,
2014-08-30 01:41:00,74.8,69.3,30.24,East,97,1.3,4.6,83,0.00,CLR,,0.00,WeatherDisplay:10.37,2014-08-30 05:41:00,
2014-08-30 01:42:00,74.8,69.3,30.24,East,97,0.0,3.5,83,0.00,CLR,,0.00,WeatherDisplay:10.37,2014-08-30 05:42:00,
2014-08-30 01:43:00,74.8,69.3,30.24,East,97,0.0,0.0,83,0.00,CLR,,0.00,WeatherDisplay:10.37,2014-08-30 05:43:00,
2014-08-30 01:44:00,74.8,69.3,30.24,East,97,0.0,0.0,83,0.00,CLR,,0.00,WeatherDisplay:10.37,2014-08-30 05:44:00,
2014-08-30 01:47:00,74.9,69.4,30.24,East,82,0.1,4.6,83,0.00,CLR,,0.00,WeatherDisplay:10.37,2014-08-30 05:47:00,
2014-08-30 01:48:00,74.9,69.4,30.24,ESE,103,0.5,4.6,83,0.00,CLR,,0.00,WeatherDisplay:10.37,2014-08-30 05:48:00,
2014-08-30 01:49:00,74.8,69.3,30.24,East,92,0.8,4.6,83,0.00,CLR,,0.00,WeatherDisplay:10.37,2014-08-30 05:49:00,
2014-08-30 01:50:00,74.9,69.4,30.24,East,92,0.0,0.0,83,0.00,CLR,,0.00,WeatherDisplay:10.37,2014-08-30 05:50:00,
2014-08-30 01:52:00,74.9,69.4,30.24,East,92,0.0,0.0,83,0.00,CLR,,0.00,WeatherDisplay:10.37,2014-08-30 05:52:00,
2014-08-30 01:54:00,74.7,69.2,30.25,East,92,0.0,0.0,83,0.00,CLR,,0.00,WeatherDisplay:10.37,2014-08-30 05:54:00,
2014-08-30 01:55:00,74.7,69.2,30.25,East,92,0.0,0.0,83,0.00,CLR,,0.00,WeatherDisplay:10.37,2014-08-30 05:55:00,
2014-08-30 01:57:00,74.7,69.2,30.25,East,92,0.6,3.5,83,0.00,CLR,,0.00,WeatherDisplay:10.37,2014-08-30 05:57:00,
2014-08-30 01:59:00,74.8,69.3,30.25,East,92,0.0,0.0,83,0.00,CLR,,0.00,WeatherDisplay:10.37,2014-08-30 05:59:00,
2014-08-30 02:01:00,74.8,69.3,30.25,East,92,0.0,0.0,83,0.00,CLR,,0.00,WeatherDisplay:10.37,2014-08-30 06:01:00,
2014-08-30 02:02:00,74.7,69.5,30.25,East,92,0.0,0.0,84,0.00,CLR,,0.00,WeatherDisplay:10.37,2014-08-30 06:02:00,
2014-08-30 02:04:00,74.7,69.5,30.25,East,92,0.0,0.0,84,0.00,CLR,,0.00,WeatherDisplay:10.37,2014-08-30 06:04:00,
2014-08-30 02:05:00,74.6,69.4,30.25,East,92,0.0,0.0,84,0.00,CLR,,0.00,WeatherDisplay:10.37,2014-08-30 06:05:00,
2014-08-30 02:06:00,74.6,69.4,30.24,East,92,0.0,0.0,84,0.00,CLR,,0.00,WeatherDisplay:10.37,2014-08-30 06:06:00,
2014-08-30 02:08:00,74.6,69.4,30.24,East,92,0.0,0.0,84,0.00,CLR,,0.00,WeatherDisplay:10.37,2014-08-30 06:08:00,
2014-08-30 02:09:00,74.5,69.3,30.24,East,92,0.0,0.0,84,0.00,CLR,,0.00,WeatherDisplay:10.37,2014-08-30 06:09:00,
2014-08-30 02:10:00,74.6,69.4,30.24,ESE,102,0.5,3.5,84,0.00,CLR,,0.00,WeatherDisplay:10.37,2014-08-30 06:10:00,
2014-08-30 02:11:00,74.5,69.3,30.24,ESE,102,0.0,3.5,84,0.00,CLR,,0.00,WeatherDisplay:10.37,2014-08-30 06:11:00,
2014-08-30 02:14:00,74.5,69.3,30.24,ESE,103,1.0,1.8,84,0.00,CLR,,0.00,WeatherDisplay:10.37,2014-08-30 06:14:00,
2014-08-30 02:15:00,74.4,69.2,30.24,ESE,103,1.0,4.6,84,0.00,CLR,,0.00,WeatherDisplay:10.37,2014-08-30 06:15:00,
2014-08-30 02:16:00,74.4,69.2,30.24,ESE,103,0.0,0.0,84,0.00,CLR,,0.00,WeatherDisplay:10.37,2014-08-30 06:16:00,
2014-08-30 02:19:00,74.5,69.3,30.24,ESE,103,0.0,0.0,84,0.00,CLR,,0.00,WeatherDisplay:10.37,2014-08-30 06:19:00,
2014-08-30 02:21:00,74.5,69.3,30.24,ESE,103,0.0,0.0,84,0.00,CLR,,0.00,WeatherDisplay:10.37,2014-08-30 06:21:00,
2014-08-30 02:22:00,74.4,69.2,30.24,ESE,103,0.0,0.0,84,0.00,CLR,,0.00,WeatherDisplay:10.37,2014-08-30 06:22:00,
2014-08-30 02:24:00,74.4,69.6,30.24,ESE,103,0.0,0.0,85,0.00,CLR,,0.00,WeatherDisplay:10.37,2014-08-30 06:24:00,
2014-08-30 02:25:00,74.4,69.6,30.24,ESE,103,0.0,0.0,85,0.00,CLR,,0.00,WeatherDisplay:10.37,2014-08-30 06:25:00,
2014-08-30 02:26:00,74.4,69.6,30.24,ESE,103,0.0,0.0,85,0.00,CLR,,0.00,WeatherDisplay:10.37,2014-08-30 06:26:00,
2014-08-30 02:27:00,74.4,69.6,30.24,ESE,103,0.0,0.0,85,0.00,CLR,,0.00,WeatherDisplay:10.37,2014-08-30 06:27:00,
2014-08-30 02:29:00,74.4,69.6,30.24,ESE,103,0.0,0.0,85,0.00,CLR,,0.00,WeatherDisplay:10.37,2014-08-30 06:29:00,
2014-08-30 02:30:00,74.4,69.6,30.24,ESE,103,0.0,0.0,85,0.00,CLR,,0.00,WeatherDisplay:10.37,2014-08-30 06:30:00,
2014-08-30 02:31:00,74.4,69.6,30.24,ESE,103,0.0,0.0,85,0.00,CLR,,0.00,WeatherDisplay:10.37,2014-08-30 06:31:00,
2014-08-30 02:32:00,74.4,69.6,30.24,ESE,103,0.0,0.0,85,0.00,CLR,,0.00,WeatherDisplay:10.37,2014-08-30 06:32:00,
2014-08-30 02:34:00,74.4,69.6,30.24,ESE,103,0.0,0.0,85,0.00,CLR,,0.00,WeatherDisplay:10.37,2014-08-30 06:34:00,
2014-08-30 02:35:00,74.5,69.7,30.24,ESE,103,0.0,0.0,85,0.00,CLR,,0.00,WeatherDisplay:10.37,2014-08-30 06:35:00,
2014-08-30 02:36:00,74.4,69.6,30.24,ESE,103,0.0,0.0,85,0.00,CLR,,0.00,WeatherDisplay:10.37,2014-08-30 06:36:00,
2014-08-30 02:37:00,74.4,69.6,30.24,ESE,103,0.0,0.0,85,0.00,CLR,,0.00,WeatherDisplay:10.37,2014-08-30 06:37:00,
2014-08-30 02:39:00,74.4,69.6,30.24,ESE,103,0.0,0.0,85,0.00,CLR,,0.00,WeatherDisplay:10.37,2014-08-30 06:39:00,
2014-08-30 02:40:00,74.5,69.7,30.24,ESE,103,0.0,0.0,85,0.00,CLR,,0.00,WeatherDisplay:10.37,2014-08-30 06:40:00,
2014-08-30 02:42:00,74.4,69.6,30.24,ESE,103,0.0,0.0,85,0.00,CLR,,0.00,WeatherDisplay:10.37,2014-08-30 06:42:00,
2014-08-30 02:43:00,74.5,69.7,30.24,ESE,103,0.0,0.0,85,0.00,CLR,,0.00,WeatherDisplay:10.37,2014-08-30 06:43:00,
2014-08-30 02:44:00,74.4,69.6,30.24,ESE,119,3.1,5.8,85,0.00,CLR,,0.00,WeatherDisplay:10.37,2014-08-30 06:44:00,
2014-08-30 02:45:00,74.4,69.6,30.24,East,92,1.6,5.8,85,0.00,CLR,,0.00,WeatherDisplay:10.37,2014-08-30 06:45:00,
2014-08-30 02:46:00,74.4,69.6,30.24,East,92,0.4,3.5,85,0.00,CLR,,0.00,WeatherDisplay:10.37,2014-08-30 06:46:00,
2014-08-30 02:47:00,74.4,69.9,30.23,East,92,0.0,0.0,86,0.00,CLR,,0.00,WeatherDisplay:10.37,2014-08-30 06:47:00,
2014-08-30 02:49:00,74.4,69.9,30.24,East,92,0.0,0.0,86,0.00,CLR,,0.00,WeatherDisplay:10.37,2014-08-30 06:49:00,
2014-08-30 02:50:00,74.4,69.9,30.24,East,92,0.0,0.0,86,0.00,CLR,,0.00,WeatherDisplay:10.37,2014-08-30 06:50:00,
2014-08-30 02:51:00,74.4,69.9,30.24,East,92,0.0,0.0,86,0.00,CLR,,0.00,WeatherDisplay:10.37,2014-08-30 06:51:00,
2014-08-30 02:52:00,74.4,69.9,30.24,East,92,0.0,0.0,86,0.00,CLR,,0.00,WeatherDisplay:10.37,2014-08-30 06:52:00,
2014-08-30 02:54:00,74.4,69.9,30.24,East,92,0.0,0.0,86,0.00,CLR,,0.00,WeatherDisplay:10.37,2014-08-30 06:54:00,
2014-08-30 02:55:00,74.4,69.9,30.24,East,92,0.0,0.0,86,0.00,CLR,,0.00,WeatherDisplay:10.37,2014-08-30 06:55:00,
2014-08-30 02:56:00,74.4,69.9,30.24,East,92,0.0,0.0,86,0.00,CLR,,0.00,WeatherDisplay:10.37,2014-08-30 06:56:00,
2014-08-30 02:57:00,74.3,69.8,30.24,East,92,0.0,0.0,86,0.00,CLR,,0.00,WeatherDisplay:10.37,2014-08-30 06:57:00,
2014-08-30 02:59:00,74.4,69.9,30.24,East,92,0.0,0.0,86,0.00,CLR,,0.00,WeatherDisplay:10.37,2014-08-30 06:59:00,
2014-08-30 03:00:00,74.4,69.9,30.24,East,92,0.0,0.0,86,0.00,CLR,,0.00,WeatherDisplay:10.37,2014-08-30 07:00:00,
2014-08-30 03:01:00,74.4,69.9,30.24,East,92,0.0,0.0,86,0.00,CLR,,0.00,WeatherDisplay:10.37,2014-08-30 07:01:00,
2014-08-30 03:02:00,74.4,69.9,30.24,East,92,0.0,0.0,86,0.00,CLR,,0.00,WeatherDisplay:10.37,2014-08-30 07:02:00,
2014-08-30 03:03:00,74.4,69.9,30.24,East,92,0.0,0.0,86,0.00,CLR,,0.00,WeatherDisplay:10.37,2014-08-30 07:03:00,
2014-08-30 03:04:00,74.3,69.8,30.24,East,92,0.0,0.0,86,0.00,CLR,,0.00,WeatherDisplay:10.37,2014-08-30 07:04:00,
2014-08-30 03:05:00,74.4,69.9,30.24,East,92,0.0,0.0,86,0.00,CLR,,0.00,WeatherDisplay:10.37,2014-08-30 07:05:00,
2014-08-30 03:06:00,74.3,69.8,30.24,East,92,0.0,0.0,86,0.00,CLR,,0.00,WeatherDisplay:10.37,2014-08-30 07:06:00,
2014-08-30 03:07:00,74.3,69.8,30.24,East,92,0.0,0.0,86,0.00,CLR,,0.00,WeatherDisplay:10.37,2014-08-30 07:07:00,
2014-08-30 03:08:00,74.4,69.9,30.24,East,92,0.0,0.0,86,0.00,CLR,,0.00,WeatherDisplay:10.37,2014-08-30 07:08:00,
2014-08-30 03:09:00,74.3,69.8,30.24,East,92,0.0,0.0,86,0.00,CLR,,0.00,WeatherDisplay:10.37,2014-08-30 07:09:00,
2014-08-30 03:10:00,74.3,69.8,30.24,East,92,0.0,0.0,86,0.00,CLR,,0.00,WeatherDisplay:10.37,2014-08-30 07:10:00,
2014-08-30 03:11:00,74.4,69.9,30.24,East,92,0.0,0.0,86,0.00,CLR,,0.00,WeatherDisplay:10.37,2014-08-30 07:11:00,
2014-08-30 03:13:00,74.3,70.2,30.24,East,92,0.0,0.0,87,0.00,CLR,,0.00,WeatherDisplay:10.37,2014-08-30 07:13:00,
2014-08-30 03:14:00,74.4,70.3,30.24,East,92,0.0,0.0,87,0.00,CLR,,0.00,WeatherDisplay:10.37,2014-08-30 07:14:00,
2014-08-30 03:15:00,74.4,70.3,30.24,East,92,0.0,0.0,87,0.00,CLR,,0.00,WeatherDisplay:10.37,2014-08-30 07:15:00,
2014-08-30 03:16:00,74.4,70.3,30.24,East,92,0.0,0.0,87,0.00,CLR,,0.00,WeatherDisplay:10.37,2014-08-30 07:16:00,
2014-08-30 03:18:00,74.4,70.3,30.24,East,92,0.0,0.0,87,0.00,CLR,,0.00,WeatherDisplay:10.37,2014-08-30 07:18:00,
2014-08-30 03:20:00,74.4,70.3,30.23,East,92,0.0,0.0,87,0.00,CLR,,0.00,WeatherDisplay:10.37,2014-08-30 07:20:00,
2014-08-30 03:21:00,74.4,70.3,30.24,East,92,0.0,0.0,87,0.00,CLR,,0.00,WeatherDisplay:10.37,2014-08-30 07:21:00,
2014-08-30 03:22:00,74.4,70.3,30.23,East,100,2.8,5.8,87,0.00,CLR,,0.00,WeatherDisplay:10.37,2014-08-30 07:22:00,
2014-08-30 03:23:00,74.4,70.3,30.23,ESE,109,2.9,4.6,87,0.00,CLR,,0.00,WeatherDisplay:10.37,2014-08-30 07:23:00,
2014-08-30 03:25:00,74.4,70.3,30.23,ESE,112,0.0,0.0,87,0.00,CLR,,0.00,WeatherDisplay:10.37,2014-08-30 07:25:00,
2014-08-30 03:26:00,74.4,70.3,30.23,ESE,112,0.0,0.0,87,0.00,CLR,,0.00,WeatherDisplay:10.37,2014-08-30 07:26:00,
2014-08-30 03:28:00,74.3,70.2,30.23,ESE,112,0.0,0.0,87,0.00,CLR,,0.00,WeatherDisplay:10.37,2014-08-30 07:28:00,
2014-08-30 03:31:00,74.4,70.3,30.23,ESE,112,0.0,0.0,87,0.00,CLR,,0.00,WeatherDisplay:10.37,2014-08-30 07:31:00,
2014-08-30 03:32:00,74.4,70.3,30.23,ESE,112,0.0,0.0,87,0.00,CLR,,0.00,WeatherDisplay:10.37,2014-08-30 07:32:00,
2014-08-30 03:34:00,74.4,70.3,30.23,ESE,112,0.0,0.0,87,0.00,CLR,,0.00,WeatherDisplay:10.37,2014-08-30 07:34:00,
2014-08-30 03:36:00,74.4,70.3,30.23,ESE,112,0.0,0.0,87,0.00,CLR,,0.00,WeatherDisplay:10.37,2014-08-30 07:36:00,
2014-08-30 03:37:00,74.4,70.3,30.23,ESE,112,0.0,0.0,87,0.00,CLR,,0.00,WeatherDisplay:10.37,2014-08-30 07:37:00,
2014-08-30 03:39:00,74.3,70.2,30.23,ESE,112,0.0,0.0,87,0.00,CLR,,0.00,WeatherDisplay:10.37,2014-08-30 07:39:00,
2014-08-30 03:41:00,74.3,70.2,30.23,ESE,112,0.0,0.0,87,0.00,CLR,,0.00,WeatherDisplay:10.37,2014-08-30 07:41:00,
2014-08-30 03:42:00,74.4,70.3,30.23,ESE,112,0.0,0.0,87,0.00,CLR,,0.00,WeatherDisplay:10.37,2014-08-30 07:42:00,
2014-08-30 03:44:00,74.2,70.1,30.22,ESE,112,0.0,0.0,87,0.00,CLR,,0.00,WeatherDisplay:10.37,2014-08-30 07:44:00,
2014-08-30 03:46:00,74.3,70.2,30.22,ENE,75,3.7,6.9,87,0.00,CLR,,0.00,WeatherDisplay:10.37,2014-08-30 07:46:00,
2014-08-30 03:47:00,74.4,70.3,30.22,ENE,58,4.0,5.8,87,0.00,CLR,,0.00,WeatherDisplay:10.37,2014-08-30 07:47:00,
2014-08-30 03:49:00,74.3,70.2,30.22,East,83,4.6,6.9,87,0.00,CLR,,0.00,WeatherDisplay:10.37,2014-08-30 07:49:00,
2014-08-30 03:51:00,74.3,70.5,30.22,East,85,0.2,2.3,88,0.00,CLR,,0.00,WeatherDisplay:10.37,2014-08-30 07:51:00,
2014-08-30 03:52:00,74.3,70.5,30.22,East,85,0.0,2.3,88,0.00,CLR,,0.00,WeatherDisplay:10.37,2014-08-30 07:52:00,
2014-08-30 03:55:00,74.2,70.4,30.22,East,90,1.0,3.0,88,0.00,CLR,,0.00,WeatherDisplay:10.37,2014-08-30 07:55:00,
2014-08-30 03:56:00,74.3,70.5,30.22,East,97,0.0,4.6,88,0.00,CLR,,0.00,WeatherDisplay:10.37,2014-08-30 07:56:00,
2014-08-30 03:57:00,74.3,70.5,30.22,East,97,0.0,0.0,88,0.00,CLR,,0.00,WeatherDisplay:10.37,2014-08-30 07:57:00,
2014-08-30 03:58:00,74.3,70.5,30.22,East,97,0.0,0.0,88,0.00,CLR,,0.00,WeatherDisplay:10.37,2014-08-30 07:58:00,
2014-08-30 04:00:00,74.3,70.5,30.22,East,97,0.0,0.0,88,0.00,CLR,,0.00,WeatherDisplay:10.37,2014-08-30 08:00:00,
2014-08-30 04:01:00,74.3,70.5,30.22,East,97,0.0,0.0,88,0.00,CLR,,0.00,WeatherDisplay:10.37,2014-08-30 08:01:00,
2014-08-30 04:02:00,74.3,70.5,30.22,East,97,0.0,0.0,88,0.00,CLR,,0.00,WeatherDisplay:10.37,2014-08-30 08:02:00,
2014-08-30 04:03:00,74.3,70.5,30.22,East,97,0.0,0.0,88,0.00,CLR,,0.00,WeatherDisplay:10.37,2014-08-30 08:03:00,
2014-08-30 04:05:00,74.2,70.4,30.22,East,97,0.0,0.0,88,0.00,CLR,,0.00,WeatherDisplay:10.37,2014-08-30 08:05:00,
2014-08-30 04:06:00,74.2,70.4,30.22,East,97,0.0,0.0,88,0.00,CLR,,0.00,WeatherDisplay:10.37,2014-08-30 08:06:00,
2014-08-30 04:07:00,74.2,70.4,30.22,East,97,0.0,0.0,88,0.00,CLR,,0.00,WeatherDisplay:10.37,2014-08-30 08:07:00,
2014-08-30 04:08:00,74.2,70.4,30.22,East,97,0.0,0.0,88,0.00,CLR,,0.00,WeatherDisplay:10.37,2014-08-30 08:08:00,
2014-08-30 04:10:00,74.2,70.4,30.22,East,97,0.0,0.0,88,0.00,CLR,,0.00,WeatherDisplay:10.37,2014-08-30 08:10:00,
2014-08-30 04:12:00,74.1,70.3,30.22,East,97,0.0,0.0,88,0.00,CLR,,0.00,WeatherDisplay:10.37,2014-08-30 08:12:00,
2014-08-30 04:13:00,74.0,70.2,30.22,East,97,0.0,0.0,88,0.00,CLR,,0.00,WeatherDisplay:10.37,2014-08-30 08:13:00,
2014-08-30 04:15:00,74.0,70.6,30.22,East,97,0.0,0.0,89,0.00,CLR,,0.00,WeatherDisplay:10.37,2014-08-30 08:15:00,
2014-08-30 04:17:00,73.9,70.5,30.22,East,97,0.0,0.0,89,0.00,CLR,,0.00,WeatherDisplay:10.37,2014-08-30 08:17:00,
2014-08-30 04:18:00,73.9,70.5,30.22,East,97,0.0,0.0,89,0.00,CLR,,0.00,WeatherDisplay:10.37,2014-08-30 08:18:00,
2014-08-30 04:21:00,73.8,70.4,30.22,East,97,0.0,0.0,89,0.00,CLR,,0.00,WeatherDisplay:10.37,2014-08-30 08:21:00,
2014-08-30 04:22:00,73.8,70.4,30.22,East,97,0.0,0.0,89,0.00,CLR,,0.00,WeatherDisplay:10.37,2014-08-30 08:22:00,
2014-08-30 04:23:00,73.7,70.3,30.22,East,97,0.0,0.0,89,0.00,CLR,,0.00,WeatherDisplay:10.37,2014-08-30 08:23:00,
2014-08-30 04:26:00,73.6,70.2,30.22,East,97,0.0,0.0,89,0.00,CLR,,0.00,WeatherDisplay:10.37,2014-08-30 08:26:00,
2014-08-30 04:27:00,73.5,70.1,30.22,East,97,0.0,0.0,89,0.00,CLR,,0.00,WeatherDisplay:10.37,2014-08-30 08:27:00,
2014-08-30 04:28:00,73.6,70.2,30.23,East,97,0.0,0.0,89,0.00,CLR,,0.00,WeatherDisplay:10.37,2014-08-30 08:28:00,
2014-08-30 04:29:00,73.6,70.2,30.23,East,97,0.0,0.0,89,0.00,CLR,,0.00,WeatherDisplay:10.37,2014-08-30 08:29:00,
2014-08-30 04:31:00,73.6,70.2,30.23,East,97,0.0,0.0,89,0.00,CLR,,0.00,WeatherDisplay:10.37,2014-08-30 08:31:00,
2014-08-30 04:32:00,73.5,70.1,30.23,East,97,0.0,0.0,89,0.00,CLR,,0.00,WeatherDisplay:10.37,2014-08-30 08:32:00,
2014-08-30 04:33:00,73.5,70.1,30.23,East,97,0.0,0.0,89,0.00,CLR,,0.00,WeatherDisplay:10.37,2014-08-30 08:33:00,
2014-08-30 04:34:00,73.5,70.1,30.23,East,97,0.0,0.0,89,0.00,CLR,,0.00,WeatherDisplay:10.37,2014-08-30 08:34:00,
2014-08-30 04:37:00,73.4,70.3,30.23,East,97,0.0,0.0,90,0.00,CLR,,0.00,WeatherDisplay:10.37,2014-08-30 08:37:00,
2014-08-30 04:39:00,73.4,70.3,30.23,East,97,0.0,0.0,90,0.00,CLR,,0.00,WeatherDisplay:10.37,2014-08-30 08:39:00,
2014-08-30 04:40:00,73.3,70.2,30.23,East,97,0.0,0.0,90,0.00,CLR,,0.00,WeatherDisplay:10.37,2014-08-30 08:40:00,
2014-08-30 04:42:00,73.5,70.4,30.23,East,97,0.0,0.0,90,0.00,CLR,,0.00,WeatherDisplay:10.37,2014-08-30 08:42:00,
2014-08-30 04:44:00,73.4,70.3,30.23,East,97,0.0,0.0,90,0.00,CLR,,0.00,WeatherDisplay:10.37,2014-08-30 08:44:00,
2014-08-30 04:45:00,73.4,70.3,30.23,East,97,0.0,0.0,90,0.00,CLR,,0.00,WeatherDisplay:10.37,2014-08-30 08:45:00,
2014-08-30 04:47:00,73.3,70.2,30.23,East,97,0.0,0.0,90,0.00,CLR,,0.00,WeatherDisplay:10.37,2014-08-30 08:47:00,
2014-08-30 04:48:00,73.4,70.3,30.23,East,97,0.0,0.0,90,0.00,CLR,,0.00,WeatherDisplay:10.37,2014-08-30 08:48:00,
2014-08-30 04:49:00,73.5,70.4,30.23,East,97,0.0,0.0,90,0.00,CLR,,0.00,WeatherDisplay:10.37,2014-08-30 08:49:00,
2014-08-30 04:50:00,73.4,70.3,30.23,East,97,0.0,0.0,90,0.00,CLR,,0.00,WeatherDisplay:10.37,2014-08-30 08:50:00,
2014-08-30 04:52:00,73.4,70.3,30.23,East,97,0.0,0.0,90,0.00,CLR,,0.00,WeatherDisplay:10.37,2014-08-30 08:52:00,
2014-08-30 04:53:00,73.4,70.3,30.23,East,97,0.0,0.0,90,0.00,CLR,,0.00,WeatherDisplay:10.37,2014-08-30 08:53:00,
2014-08-30 04:54:00,73.4,70.3,30.23,East,97,0.0,0.0,90,0.00,CLR,,0.00,WeatherDisplay:10.37,2014-08-30 08:54:00,
2014-08-30 04:55:00,73.3,70.2,30.23,East,97,0.0,0.0,90,0.00,CLR,,0.00,WeatherDisplay:10.37,2014-08-30 08:55:00,
2014-08-30 04:56:00,73.4,70.3,30.23,East,97,0.0,0.0,90,0.00,CLR,,0.00,WeatherDisplay:10.37,2014-08-30 08:56:00,
2014-08-30 04:57:00,73.4,70.3,30.23,East,97,0.0,0.0,90,0.00,CLR,,0.00,WeatherDisplay:10.37,2014-08-30 08:57:00,
2014-08-30 04:58:00,73.4,70.3,30.23,East,97,0.0,0.0,90,0.00,CLR,,0.00,WeatherDisplay:10.37,2014-08-30 08:58:00,
2014-08-30 04:59:00,73.4,70.3,30.23,East,97,0.0,0.0,90,0.00,CLR,,0.00,WeatherDisplay:10.37,2014-08-30 08:59:00,
2014-08-30 05:00:00,73.4,70.3,30.23,East,97,0.0,0.0,90,0.00,CLR,,0.00,WeatherDisplay:10.37,2014-08-30 09:00:00,
2014-08-30 05:01:00,73.4,70.3,30.23,East,97,0.0,0.0,90,0.00,CLR,,0.00,WeatherDisplay:10.37,2014-08-30 09:01:00,
2014-08-30 05:03:00,73.3,70.2,30.23,East,97,0.0,0.0,90,0.00,CLR,,0.00,WeatherDisplay:10.37,2014-08-30 09:03:00,
2014-08-30 05:05:00,73.3,70.2,30.23,East,97,0.0,0.0,90,0.00,CLR,,0.00,WeatherDisplay:10.37,2014-08-30 09:05:00,
2014-08-30 05:06:00,73.3,70.2,30.23,East,97,0.0,0.0,90,0.00,CLR,,0.00,WeatherDisplay:10.37,2014-08-30 09:06:00,
2014-08-30 05:07:00,73.4,70.3,30.23,East,97,0.0,0.0,90,0.00,CLR,,0.00,WeatherDisplay:10.37,2014-08-30 09:07:00,
2014-08-30 05:08:00,73.4,70.3,30.23,East,97,0.0,0.0,90,0.00,CLR,,0.00,WeatherDisplay:10.37,2014-08-30 09:08:00,
2014-08-30 05:09:00,73.4,70.3,30.23,East,97,0.0,0.0,90,0.00,CLR,,0.00,WeatherDisplay:10.37,2014-08-30 09:09:00,
2014-08-30 05:10:00,73.3,70.2,30.23,East,97,0.0,0.0,90,0.00,CLR,,0.00,WeatherDisplay:10.37,2014-08-30 09:10:00,
2014-08-30 05:11:00,73.2,70.1,30.23,East,97,0.0,0.0,90,0.00,CLR,,0.00,WeatherDisplay:10.37,2014-08-30 09:11:00,
2014-08-30 05:12:00,73.3,70.2,30.23,East,97,0.0,0.0,90,0.00,CLR,,0.00,WeatherDisplay:10.37,2014-08-30 09:12:00,
2014-08-30 05:13:00,73.2,70.1,30.23,East,97,0.0,0.0,90,0.00,CLR,,0.00,WeatherDisplay:10.37,2014-08-30 09:13:00,
2014-08-30 05:14:00,73.2,70.1,30.23,East,97,0.0,0.0,90,0.00,CLR,,0.00,WeatherDisplay:10.37,2014-08-30 09:14:00,
2014-08-30 05:15:00,73.2,70.1,30.23,East,97,0.0,0.0,90,0.00,CLR,,0.00,WeatherDisplay:10.37,2014-08-30 09:15:00,
2014-08-30 05:16:00,73.2,70.4,30.23,East,97,0.0,0.0,91,0.00,CLR,,0.00,WeatherDisplay:10.37,2014-08-30 09:16:00,
2014-08-30 05:17:00,73.2,70.1,30.23,East,97,0.0,0.0,90,0.00,CLR,,0.00,WeatherDisplay:10.37,2014-08-30 09:17:00,
2014-08-30 05:18:00,73.1,70.3,30.23,East,97,0.0,0.0,91,0.00,CLR,,0.00,WeatherDisplay:10.37,2014-08-30 09:18:00,
2014-08-30 05:19:00,73.1,70.3,30.23,East,97,0.0,0.0,91,0.00,CLR,,0.00,WeatherDisplay:10.37,2014-08-30 09:19:00,
2014-08-30 05:20:00,73.1,70.3,30.23,East,97,0.0,0.0,91,0.00,CLR,,0.00,WeatherDisplay:10.37,2014-08-30 09:20:00,
2014-08-30 05:21:00,73.1,70.3,30.23,East,97,0.0,0.0,91,0.00,CLR,,0.00,WeatherDisplay:10.37,2014-08-30 09:21:00,
2014-08-30 05:22:00,73.0,70.2,30.23,East,97,0.0,0.0,91,0.00,CLR,,0.00,WeatherDisplay:10.37,2014-08-30 09:22:00,
2014-08-30 05:24:00,73.1,70.3,30.23,East,97,0.0,0.0,91,0.00,CLR,,0.00,WeatherDisplay:10.37,2014-08-30 09:24:00,
2014-08-30 05:25:00,73.1,70.3,30.23,East,97,0.0,0.0,91,0.00,CLR,,0.00,WeatherDisplay:10.37,2014-08-30 09:25:00,
2014-08-30 05:26:00,73.1,70.3,30.23,East,97,0.0,0.0,91,0.00,CLR,,0.00,WeatherDisplay:10.37,2014-08-30 09:26:00,
2014-08-30 05:28:00,72.9,70.1,30.24,East,97,0.0,0.0,91,0.00,CLR,,0.00,WeatherDisplay:10.37,2014-08-30 09:28:00,
2014-08-30 05:29:00,72.9,70.1,30.24,East,97,0.0,0.0,91,0.00,CLR,,0.00,WeatherDisplay:10.37,2014-08-30 09:29:00,
2014-08-30 05:30:00,72.9,70.1,30.24,East,97,0.0,0.0,91,0.00,CLR,,0.00,WeatherDisplay:10.37,2014-08-30 09:30:00,
2014-08-30 05:31:00,72.9,70.1,30.24,East,97,0.0,0.0,91,0.00,CLR,,0.00,WeatherDisplay:10.37,2014-08-30 09:31:00,
2014-08-30 05:33:00,72.9,70.1,30.24,East,97,0.0,0.0,91,0.00,CLR,,0.00,WeatherDisplay:10.37,2014-08-30 09:33:00,
2014-08-30 05:35:00,72.9,70.1,30.24,East,85,0.6,4.6,91,0.00,CLR,,0.00,WeatherDisplay:10.37,2014-08-30 09:35:00,
2014-08-30 05:36:00,72.8,70.0,30.23,East,99,1.3,4.6,91,0.00,CLR,,0.00,WeatherDisplay:10.37,2014-08-30 09:36:00,
2014-08-30 05:37:00,72.8,70.0,30.24,East,99,0.0,4.6,91,0.00,CLR,,0.00,WeatherDisplay:10.37,2014-08-30 09:37:00,
2014-08-30 05:38:00,72.8,70.0,30.24,East,99,0.0,0.0,91,0.00,CLR,,0.00,WeatherDisplay:10.37,2014-08-30 09:38:00,
2014-08-30 05:40:00,72.8,70.0,30.24,East,99,0.0,0.0,91,0.00,CLR,,0.00,WeatherDisplay:10.37,2014-08-30 09:40:00,
2014-08-30 05:41:00,72.8,70.0,30.24,East,99,0.0,0.0,91,0.00,CLR,,0.00,WeatherDisplay:10.37,2014-08-30 09:41:00,
2014-08-30 05:42:00,72.8,70.0,30.24,East,99,0.0,0.0,91,0.00,CLR,,0.00,WeatherDisplay:10.37,2014-08-30 09:42:00,
2014-08-30 05:44:00,72.8,70.0,30.24,East,99,0.0,0.0,91,0.00,CLR,,0.00,WeatherDisplay:10.37,2014-08-30 09:44:00,
2014-08-30 05:45:00,72.7,69.9,30.24,East,99,0.0,0.0,91,0.00,CLR,,0.00,WeatherDisplay:10.37,2014-08-30 09:45:00,
2014-08-30 05:46:00,72.8,70.0,30.24,East,99,0.0,0.0,91,0.00,CLR,,0.00,WeatherDisplay:10.37,2014-08-30 09:46:00,
2014-08-30 05:47:00,72.8,70.0,30.24,East,99,0.0,0.0,91,0.00,CLR,,0.00,WeatherDisplay:10.37,2014-08-30 09:47:00,
2014-08-30 05:49:00,72.9,70.4,30.24,East,99,0.0,0.0,92,0.00,CLR,,0.00,WeatherDisplay:10.37,2014-08-30 09:49:00,
2014-08-30 05:51:00,72.9,70.1,30.24,East,99,0.0,0.0,91,0.00,CLR,,0.00,WeatherDisplay:10.37,2014-08-30 09:51:00,
2014-08-30 05:52:00,72.9,70.4,30.24,East,99,0.0,0.0,92,0.00,CLR,,0.00,WeatherDisplay:10.37,2014-08-30 09:52:00,
2014-08-30 05:55:00,73.0,70.5,30.24,East,99,0.0,0.0,92,0.00,CLR,,0.00,WeatherDisplay:10.37,2014-08-30 09:55:00,
2014-08-30 05:56:00,73.1,70.6,30.24,East,99,0.0,0.0,92,0.00,CLR,,0.00,WeatherDisplay:10.37,2014-08-30 09:56:00,
2014-08-30 05:57:00,73.0,70.5,30.24,North,8,0.0,0.0,92,0.00,CLR,,0.00,WeatherDisplay:10.37,2014-08-30 09:57:00,
2014-08-30 05:58:00,73.0,70.5,30.24,North,8,0.0,0.0,92,0.00,CLR,,0.00,WeatherDisplay:10.37,2014-08-30 09:58:00,
2014-08-30 06:00:00,73.0,70.2,30.24,North,8,0.0,0.0,91,0.00,CLR,,0.00,WeatherDisplay:10.37,2014-08-30 10:00:00,
2014-08-30 06:01:00,73.0,70.2,30.24,North,8,0.0,0.0,91,0.00,CLR,,0.00,WeatherDisplay:10.37,2014-08-30 10:01:00,
2014-08-30 06:02:00,73.0,70.2,30.24,North,8,0.0,0.0,91,0.00,CLR,,0.00,WeatherDisplay:10.37,2014-08-30 10:02:00,
2014-08-30 06:03:00,73.0,70.2,30.24,North,8,0.0,0.0,91,0.00,CLR,,0.00,WeatherDisplay:10.37,2014-08-30 10:03:00,
2014-08-30 06:06:00,73.0,70.5,30.25,North,8,0.0,0.0,92,0.00,CLR,,0.00,WeatherDisplay:10.37,2014-08-30 10:06:00,
2014-08-30 06:07:00,73.0,70.5,30.25,North,8,0.0,0.0,92,0.00,CLR,,0.00,WeatherDisplay:10.37,2014-08-30 10:07:00,
2014-08-30 06:09:00,73.0,70.5,30.25,North,8,0.0,0.0,92,0.00,CLR,,0.00,WeatherDisplay:10.37,2014-08-30 10:09:00,
2014-08-30 06:11:00,72.9,70.4,30.25,North,8,0.0,0.0,92,0.00,CLR,,0.00,WeatherDisplay:10.37,2014-08-30 10:11:00,
2014-08-30 06:12:00,73.0,70.5,30.25,North,8,0.0,0.0,92,0.00,CLR,,0.00,WeatherDisplay:10.37,2014-08-30 10:12:00,
2014-08-30 06:13:00,73.0,70.5,30.25,North,8,0.0,0.0,92,0.00,CLR,,0.00,WeatherDisplay:10.37,2014-08-30 10:13:00,
2014-08-30 06:16:00,73.0,70.5,30.25,North,8,0.0,0.0,92,0.00,CLR,,0.00,WeatherDisplay:10.37,2014-08-30 10:16:00,
2014-08-30 06:17:00,73.0,70.5,30.25,North,8,0.0,0.0,92,0.00,CLR,,0.00,WeatherDisplay:10.37,2014-08-30 10:17:00,
2014-08-30 06:18:00,73.0,70.5,30.25,North,8,0.0,0.0,92,0.00,CLR,,0.00,WeatherDisplay:10.37,2014-08-30 10:18:00,
2014-08-30 06:19:00,73.0,70.5,30.25,North,8,0.0,0.0,92,0.00,CLR,,0.00,WeatherDisplay:10.37,2014-08-30 10:19:00,
2014-08-30 06:21:00,73.1,70.6,30.25,North,8,0.0,0.0,92,0.00,CLR,,0.00,WeatherDisplay:10.37,2014-08-30 10:21:00,
2014-08-30 06:22:00,73.0,70.5,30.25,North,8,0.0,0.0,92,0.00,CLR,,0.00,WeatherDisplay:10.37,2014-08-30 10:22:00,
2014-08-30 06:24:00,73.0,70.5,30.25,North,8,0.0,0.0,92,0.00,CLR,,0.00,WeatherDisplay:10.37,2014-08-30 10:24:00,
2014-08-30 06:27:00,72.9,70.4,30.25,North,8,0.0,0.0,92,0.00,CLR,,0.00,WeatherDisplay:10.37,2014-08-30 10:27:00,
2014-08-30 06:28:00,73.0,70.5,30.25,North,8,0.0,0.0,92,0.00,CLR,,0.00,WeatherDisplay:10.37,2014-08-30 10:28:00,
2014-08-30 06:29:00,73.0,70.5,30.25,North,8,0.0,0.0,92,0.00,CLR,,0.00,WeatherDisplay:10.37,2014-08-30 10:29:00,
2014-08-30 06:32:00,72.9,70.4,30.25,North,8,0.0,0.0,92,0.00,CLR,,0.00,WeatherDisplay:10.37,2014-08-30 10:32:00,
2014-08-30 06:33:00,73.0,70.5,30.25,East,99,0.4,0.0,92,0.00,CLR,,0.00,WeatherDisplay:10.37,2014-08-30 10:33:00,
2014-08-30 06:34:00,72.9,70.4,30.25,East,99,0.0,2.3,92,0.00,CLR,,0.00,WeatherDisplay:10.37,2014-08-30 10:34:00,
2014-08-30 06:35:00,73.0,70.5,30.25,East,99,0.0,0.0,92,0.00,CLR,,0.00,WeatherDisplay:10.37,2014-08-30 10:35:00,
2014-08-30 06:37:00,72.9,70.4,30.25,East,99,0.0,0.0,92,0.00,CLR,,0.00,WeatherDisplay:10.37,2014-08-30 10:37:00,
2014-08-30 06:38:00,73.0,70.5,30.25,East,99,0.0,0.0,92,0.00,CLR,,0.00,WeatherDisplay:10.37,2014-08-30 10:38:00,
2014-08-30 06:39:00,72.9,70.4,30.25,East,99,0.0,0.0,92,0.00,CLR,,0.00,WeatherDisplay:10.37,2014-08-30 10:39:00,
2014-08-30 06:40:00,72.9,70.4,30.25,East,99,0.0,0.0,92,0.00,CLR,,0.00,WeatherDisplay:10.37,2014-08-30 10:40:00,
2014-08-30 06:42:00,72.9,70.4,30.26,East,99,0.0,0.0,92,0.00,CLR,,0.00,WeatherDisplay:10.37,2014-08-30 10:42:00,
2014-08-30 06:43:00,72.9,70.4,30.26,East,99,0.0,0.0,92,0.00,CLR,,0.00,WeatherDisplay:10.37,2014-08-30 10:43:00,
2014-08-30 06:44:00,73.0,70.5,30.26,East,99,0.0,0.0,92,0.00,CLR,,0.00,WeatherDisplay:10.37,2014-08-30 10:44:00,
2014-08-30 06:45:00,73.0,70.5,30.26,East,99,0.0,0.0,92,0.00,CLR,,0.00,WeatherDisplay:10.37,2014-08-30 10:45:00,
2014-08-30 06:48:00,73.0,70.5,30.26,ESE,109,0.8,3.5,92,0.00,CLR,,0.00,WeatherDisplay:10.37,2014-08-30 10:48:00,
2014-08-30 06:49:00,73.0,70.5,30.26,East,92,0.3,3.5,92,0.00,CLR,,0.00,WeatherDisplay:10.37,2014-08-30 10:49:00,
2014-08-30 06:50:00,72.9,70.4,30.26,East,89,2.7,5.8,92,0.00,CLR,,0.00,WeatherDisplay:10.37,2014-08-30 10:50:00,
2014-08-30 06:53:00,73.0,70.5,30.26,East,89,0.0,0.0,92,0.00,CLR,,0.00,WeatherDisplay:10.37,2014-08-30 10:53:00,
2014-08-30 06:54:00,73.0,70.5,30.26,East,89,0.0,0.0,92,0.00,CLR,,0.00,WeatherDisplay:10.37,2014-08-30 10:54:00,
2014-08-30 06:55:00,72.9,70.4,30.26,East,89,0.0,0.0,92,0.00,CLR,,0.00,WeatherDisplay:10.37,2014-08-30 10:55:00,
2014-08-30 06:58:00,73.1,70.6,30.26,East,89,0.0,0.0,92,0.00,CLR,,0.00,WeatherDisplay:10.37,2014-08-30 10:58:00,
2014-08-30 06:59:00,73.1,70.6,30.26,East,89,0.0,0.0,92,0.00,CLR,,0.00,WeatherDisplay:10.37,2014-08-30 10:59:00,
2014-08-30 07:00:00,73.1,70.6,30.26,East,89,0.0,0.0,92,0.00,CLR,,0.00,WeatherDisplay:10.37,2014-08-30 11:00:00,
2014-08-30 07:01:00,73.1,70.6,30.26,East,89,0.0,0.0,92,0.00,CLR,,0.00,WeatherDisplay:10.37,2014-08-30 11:01:00,
2014-08-30 07:04:00,73.1,70.6,30.26,East,95,0.0,0.0,92,0.00,CLR,,0.00,WeatherDisplay:10.37,2014-08-30 11:04:00,
2014-08-30 07:05:00,73.2,70.7,30.26,East,95,0.0,0.0,92,0.00,CLR,,0.00,WeatherDisplay:10.37,2014-08-30 11:05:00,
2014-08-30 07:06:00,73.2,70.7,30.26,East,95,0.0,0.0,92,0.00,CLR,,0.00,WeatherDisplay:10.37,2014-08-30 11:06:00,
2014-08-30 07:09:00,73.3,70.8,30.26,East,95,0.0,0.0,92,0.00,CLR,,0.00,WeatherDisplay:10.37,2014-08-30 11:09:00,
2014-08-30 07:10:00,73.3,70.8,30.26,East,95,0.0,0.0,92,0.00,CLR,,0.00,WeatherDisplay:10.37,2014-08-30 11:10:00,
2014-08-30 07:11:00,73.3,70.8,30.26,East,95,0.0,0.0,92,0.00,CLR,,0.00,WeatherDisplay:10.37,2014-08-30 11:11:00,
2014-08-30 07:14:00,73.4,70.9,30.26,East,95,0.0,0.0,92,0.00,CLR,,0.00,WeatherDisplay:10.37,2014-08-30 11:14:00,
2014-08-30 07:15:00,73.5,71.0,30.26,East,95,0.0,0.0,92,0.00,CLR,,0.00,WeatherDisplay:10.37,2014-08-30 11:15:00,
2014-08-30 07:16:00,73.4,70.9,30.26,East,95,0.0,0.0,92,0.00,CLR,,0.00,WeatherDisplay:10.37,2014-08-30 11:16:00,
2014-08-30 07:17:00,73.4,70.9,30.26,East,95,0.0,0.0,92,0.00,CLR,,0.00,WeatherDisplay:10.37,2014-08-30 11:17:00,
2014-08-30 07:19:00,73.2,70.7,30.26,East,95,0.0,0.0,92,0.00,CLR,,0.00,WeatherDisplay:10.37,2014-08-30 11:19:00,
2014-08-30 07:20:00,73.3,70.8,30.26,East,95,0.0,0.0,92,0.00,CLR,,0.00,WeatherDisplay:10.37,2014-08-30 11:20:00,
2014-08-30 07:21:00,73.4,70.9,30.26,East,95,0.0,0.0,92,0.00,CLR,,0.00,WeatherDisplay:10.37,2014-08-30 11:21:00,
2014-08-30 07:22:00,73.4,70.9,30.26,East,95,0.0,0.0,92,0.00,CLR,,0.00,WeatherDisplay:10.37,2014-08-30 11:22:00,
2014-08-30 07:24:00,73.3,70.8,30.26,NE,56,0.4,4.5,92,0.00,CLR,,0.00,WeatherDisplay:10.37,2014-08-30 11:24:00,
2014-08-30 07:26:00,73.3,70.8,30.26,NE,41,0.0,0.0,92,0.00,CLR,,0.00,WeatherDisplay:10.37,2014-08-30 11:26:00,
2014-08-30 07:27:00,73.4,70.9,30.26,NE,41,0.0,0.0,92,0.00,CLR,,0.00,WeatherDisplay:10.37,2014-08-30 11:27:00,
2014-08-30 07:29:00,73.4,70.9,30.26,NE,41,0.0,0.0,92,0.00,CLR,,0.00,WeatherDisplay:10.37,2014-08-30 11:29:00,
2014-08-30 07:30:00,73.5,71.0,30.26,NE,41,0.0,0.0,92,0.00,CLR,,0.00,WeatherDisplay:10.37,2014-08-30 11:30:00,
2014-08-30 07:32:00,73.4,70.9,30.26,NE,41,0.0,0.0,92,0.00,CLR,,0.00,WeatherDisplay:10.37,2014-08-30 11:32:00,
2014-08-30 07:33:00,73.4,70.9,30.26,NE,41,0.0,0.0,92,0.00,CLR,,0.00,WeatherDisplay:10.37,2014-08-30 11:33:00,
2014-08-30 07:34:00,73.4,70.9,30.26,NE,41,0.0,0.0,92,0.00,CLR,,0.00,WeatherDisplay:10.37,2014-08-30 11:34:00,
2014-08-30 07:35:00,73.4,70.9,30.26,NE,41,0.0,0.0,92,0.00,CLR,,0.00,WeatherDisplay:10.37,2014-08-30 11:35:00,
2014-08-30 07:37:00,73.4,70.9,30.26,NE,41,0.0,0.0,92,0.00,CLR,,0.00,WeatherDisplay:10.37,2014-08-30 11:37:00,
2014-08-30 07:38:00,73.4,70.9,30.27,NE,41,0.0,0.0,92,0.00,CLR,,0.00,WeatherDisplay:10.37,2014-08-30 11:38:00,
2014-08-30 07:40:00,73.5,71.0,30.26,NE,41,0.0,0.0,92,0.00,CLR,,0.00,WeatherDisplay:10.37,2014-08-30 11:40:00,
2014-08-30 07:42:00,73.4,70.9,30.27,NE,41,0.0,0.0,92,0.00,CLR,,0.00,WeatherDisplay:10.37,2014-08-30 11:42:00,
2014-08-30 07:43:00,73.5,71.0,30.27,NE,41,0.0,0.0,92,0.00,CLR,,0.00,WeatherDisplay:10.37,2014-08-30 11:43:00,
2014-08-30 07:44:00,73.5,71.0,30.27,NE,41,0.0,0.0,92,0.00,CLR,,0.00,WeatherDisplay:10.37,2014-08-30 11:44:00,
2014-08-30 07:45:00,73.5,71.0,30.27,NE,41,0.0,0.0,92,0.00,CLR,,0.00,WeatherDisplay:10.37,2014-08-30 11:45:00,
2014-08-30 07:46:00,73.5,71.0,30.27,NE,41,0.0,0.0,92,0.00,CLR,,0.00,WeatherDisplay:10.37,2014-08-30 11:46:00,
2014-08-30 07:47:00,73.5,71.0,30.27,NE,41,0.0,0.0,92,0.00,CLR,,0.00,WeatherDisplay:10.37,2014-08-30 11:47:00,
2014-08-30 07:48:00,73.5,71.0,30.27,NE,41,0.0,0.0,92,0.00,CLR,,0.00,WeatherDisplay:10.37,2014-08-30 11:48:00,
2014-08-30 07:49:00,73.5,71.0,30.27,NE,41,0.0,0.0,92,0.00,CLR,,0.00,WeatherDisplay:10.37,2014-08-30 11:49:00,
2014-08-30 07:50:00,73.5,71.0,30.27,NE,41,0.0,0.0,92,0.00,CLR,,0.00,WeatherDisplay:10.37,2014-08-30 11:50:00,
2014-08-30 07:51:00,73.5,71.0,30.27,NE,41,0.0,0.0,92,0.00,CLR,,0.00,WeatherDisplay:10.37,2014-08-30 11:51:00,
2014-08-30 07:52:00,73.6,71.1,30.27,NE,41,0.0,0.0,92,0.00,CLR,,0.00,WeatherDisplay:10.37,2014-08-30 11:52:00,
2014-08-30 07:53:00,73.6,71.1,30.27,NE,41,0.0,0.0,92,0.00,CLR,,0.00,WeatherDisplay:10.37,2014-08-30 11:53:00,
2014-08-30 07:54:00,73.6,71.1,30.27,NE,41,0.0,0.0,92,0.00,CLR,,0.00,WeatherDisplay:10.37,2014-08-30 11:54:00,
2014-08-30 07:56:00,73.6,71.1,30.27,NE,41,0.0,0.0,92,0.00,CLR,,0.00,WeatherDisplay:10.37,2014-08-30 11:56:00,
2014-08-30 07:57:00,73.6,71.1,30.27,NE,41,0.0,0.0,92,0.00,CLR,,0.00,WeatherDisplay:10.37,2014-08-30 11:57:00,
2014-08-30 07:58:00,73.6,71.1,30.27,NE,41,0.0,0.0,92,0.00,CLR,,0.00,WeatherDisplay:10.37,2014-08-30 11:58:00,
2014-08-30 07:59:00,73.6,71.1,30.27,NE,41,0.0,0.0,92,0.00,CLR,,0.00,WeatherDisplay:10.37,2014-08-30 11:59:00,
2014-08-30 08:01:00,73.6,71.1,30.27,NE,41,0.0,0.0,92,0.00,CLR,,0.00,WeatherDisplay:10.37,2014-08-30 12:01:00,
2014-08-30 08:02:00,73.6,71.1,30.27,NE,41,0.0,0.0,92,0.00,CLR,,0.00,WeatherDisplay:10.37,2014-08-30 12:02:00,
2014-08-30 08:03:00,73.7,71.2,30.27,NE,41,0.0,0.0,92,0.00,CLR,,0.00,WeatherDisplay:10.37,2014-08-30 12:03:00,
2014-08-30 08:04:00,73.7,71.2,30.27,NE,41,0.0,0.0,92,0.00,CLR,,0.00,WeatherDisplay:10.37,2014-08-30 12:04:00,
2014-08-30 08:05:00,73.6,71.1,30.26,NE,41,0.0,0.0,92,0.00,CLR,,0.00,WeatherDisplay:10.37,2014-08-30 12:05:00,
2014-08-30 08:06:00,73.7,71.2,30.26,NE,41,0.0,0.0,92,0.00,CLR,,0.00,WeatherDisplay:10.37,2014-08-30 12:06:00,
2014-08-30 08:07:00,73.7,71.2,30.26,NE,41,0.0,0.0,92,0.00,CLR,,0.00,WeatherDisplay:10.37,2014-08-30 12:07:00,
2014-08-30 08:08:00,73.8,71.3,30.26,NE,41,0.0,0.0,92,0.00,CLR,,0.00,WeatherDisplay:10.37,2014-08-30 12:08:00,
2014-08-30 08:09:00,73.8,71.3,30.26,NE,41,0.0,0.0,92,0.00,CLR,,0.00,WeatherDisplay:10.37,2014-08-30 12:09:00,
2014-08-30 08:10:00,73.9,71.4,30.26,NE,41,0.0,0.0,92,0.00,CLR,,0.00,WeatherDisplay:10.37,2014-08-30 12:10:00,
2014-08-30 08:11:00,73.9,71.4,30.26,NE,41,0.0,0.0,92,0.00,CLR,,0.00,WeatherDisplay:10.37,2014-08-30 12:11:00,
2014-08-30 08:13:00,73.9,71.4,30.26,NE,41,0.0,0.0,92,0.00,CLR,,0.00,WeatherDisplay:10.37,2014-08-30 12:13:00,
2014-08-30 08:14:00,74.0,71.5,30.26,NE,41,0.0,0.0,92,0.00,CLR,,0.00,WeatherDisplay:10.37,2014-08-30 12:14:00,
2014-08-30 08:15:00,74.0,71.5,30.26,NE,41,0.0,0.0,92,0.00,CLR,,0.00,WeatherDisplay:10.37,2014-08-30 12:15:00,
2014-08-30 08:16:00,73.9,71.4,30.26,NE,41,0.0,0.0,92,0.00,CLR,,0.00,WeatherDisplay:10.37,2014-08-30 12:16:00,
2014-08-30 08:18:00,74.0,71.5,30.26,NE,41,0.0,0.0,92,0.00,CLR,,0.00,WeatherDisplay:10.37,2014-08-30 12:18:00,
2014-08-30 08:19:00,74.0,71.5,30.26,NE,41,0.0,0.0,92,0.00,CLR,,0.00,WeatherDisplay:10.37,2014-08-30 12:19:00,
2014-08-30 08:20:00,74.1,71.6,30.26,NE,41,0.0,0.0,92,0.00,CLR,,0.00,WeatherDisplay:10.37,2014-08-30 12:20:00,
2014-08-30 08:21:00,74.1,71.6,30.26,NE,41,0.0,0.0,92,0.00,CLR,,0.00,WeatherDisplay:10.37,2014-08-30 12:21:00,
2014-08-30 08:23:00,74.1,71.6,30.26,NE,41,0.0,0.0,92,0.00,CLR,,0.00,WeatherDisplay:10.37,2014-08-30 12:23:00,
2014-08-30 08:24:00,74.1,71.6,30.26,NE,41,0.0,0.0,92,0.00,CLR,,0.00,WeatherDisplay:10.37,2014-08-30 12:24:00,
2014-08-30 08:25:00,74.1,71.6,30.26,NE,41,0.0,0.0,92,0.00,CLR,,0.00,WeatherDisplay:10.37,2014-08-30 12:25:00,
2014-08-30 08:26:00,74.1,71.6,30.26,NE,41,0.0,0.0,92,0.00,CLR,,0.00,WeatherDisplay:10.37,2014-08-30 12:26:00,
2014-08-30 08:27:00,74.2,71.7,30.26,NE,41,0.0,0.0,92,0.00,CLR,,0.00,WeatherDisplay:10.37,2014-08-30 12:27:00,
2014-08-30 08:28:00,74.2,71.7,30.26,NE,41,0.0,0.0,92,0.00,CLR,,0.00,WeatherDisplay:10.37,2014-08-30 12:28:00,
2014-08-30 08:30:00,74.3,71.8,30.26,NE,41,0.0,0.0,92,0.00,CLR,,0.00,WeatherDisplay:10.37,2014-08-30 12:30:00,
2014-08-30 08:32:00,74.3,71.8,30.26,NE,41,0.0,0.0,92,0.00,CLR,,0.00,WeatherDisplay:10.37,2014-08-30 12:32:00,
2014-08-30 08:33:00,74.3,71.8,30.26,NE,41,0.0,0.0,92,0.00,CLR,,0.00,WeatherDisplay:10.37,2014-08-30 12:33:00,
2014-08-30 08:35:00,74.3,71.8,30.26,NE,41,0.0,0.0,92,0.00,CLR,,0.00,WeatherDisplay:10.37,2014-08-30 12:35:00,
2014-08-30 08:36:00,74.3,71.8,30.26,NE,41,0.0,0.0,92,0.00,CLR,,0.00,WeatherDisplay:10.37,2014-08-30 12:36:00,
2014-08-30 08:37:00,74.3,71.8,30.26,NE,41,0.0,0.0,92,0.00,CLR,,0.00,WeatherDisplay:10.37,2014-08-30 12:37:00,
2014-08-30 08:38:00,74.3,71.8,30.26,NE,41,0.0,0.0,92,0.00,CLR,,0.00,WeatherDisplay:10.37,2014-08-30 12:38:00,
2014-08-30 08:39:00,74.3,71.8,30.26,NE,41,0.0,0.0,92,0.00,CLR,,0.00,WeatherDisplay:10.37,2014-08-30 12:39:00,
2014-08-30 08:40:00,74.4,71.9,30.26,NE,41,0.0,0.0,92,0.00,CLR,,0.00,WeatherDisplay:10.37,2014-08-30 12:40:00,
2014-08-30 08:41:00,74.4,71.9,30.26,NE,41,0.0,0.0,92,0.00,CLR,,0.00,WeatherDisplay:10.37,2014-08-30 12:41:00,
2014-08-30 08:42:00,74.4,71.6,30.26,NE,41,0.0,0.0,91,0.00,CLR,,0.00,WeatherDisplay:10.37,2014-08-30 12:42:00,
2014-08-30 08:43:00,74.4,71.6,30.26,NE,41,0.0,0.0,91,0.00,CLR,,0.00,WeatherDisplay:10.37,2014-08-30 12:43:00,
2014-08-30 08:44:00,74.4,71.6,30.26,NE,41,0.0,0.0,91,0.00,CLR,,0.00,WeatherDisplay:10.37,2014-08-30 12:44:00,
2014-08-30 08:45:00,74.4,71.6,30.26,NE,41,0.0,0.0,91,0.00,CLR,,0.00,WeatherDisplay:10.37,2014-08-30 12:45:00,
2014-08-30 08:46:00,74.4,71.6,30.26,NE,41,0.0,0.0,91,0.00,CLR,,0.00,WeatherDisplay:10.37,2014-08-30 12:46:00,
2014-08-30 08:47:00,74.5,71.7,30.26,NE,41,0.0,0.0,91,0.00,CLR,,0.00,WeatherDisplay:10.37,2014-08-30 12:47:00,
2014-08-30 08:48:00,74.5,71.7,30.26,NE,41,0.0,0.0,91,0.00,CLR,,0.00,WeatherDisplay:10.37,2014-08-30 12:48:00,
2014-08-30 08:49:00,74.5,71.7,30.26,NE,41,0.0,0.0,91,0.00,CLR,,0.00,WeatherDisplay:10.37,2014-08-30 12:49:00,
2014-08-30 08:50:00,74.5,71.7,30.26,NE,41,0.0,0.0,91,0.00,CLR,,0.00,WeatherDisplay:10.37,2014-08-30 12:50:00,
2014-08-30 08:52:00,74.7,71.9,30.26,NE,41,0.0,0.0,91,0.00,CLR,,0.00,WeatherDisplay:10.37,2014-08-30 12:52:00,
2014-08-30 08:53:00,74.7,71.9,30.26,NE,41,0.0,0.0,91,0.00,CLR,,0.00,WeatherDisplay:10.37,2014-08-30 12:53:00,
2014-08-30 08:54:00,74.7,71.9,30.26,NE,41,0.0,0.0,91,0.00,CLR,,0.00,WeatherDisplay:10.37,2014-08-30 12:54:00,
2014-08-30 08:55:00,74.8,72.0,30.26,NE,41,0.0,0.0,91,0.00,CLR,,0.00,WeatherDisplay:10.37,2014-08-30 12:55:00,
2014-08-30 08:57:00,75.0,72.2,30.26,NE,41,0.0,0.0,91,0.00,CLR,,0.00,WeatherDisplay:10.37,2014-08-30 12:57:00,
2014-08-30 08:58:00,75.0,72.2,30.26,NE,41,0.0,0.0,91,0.00,CLR,,0.00,WeatherDisplay:10.37,2014-08-30 12:58:00,
2014-08-30 08:59:00,75.1,72.3,30.26,NE,41,0.0,0.0,91,0.00,CLR,,0.00,WeatherDisplay:10.37,2014-08-30 12:59:00,
2014-08-30 09:01:00,75.2,72.1,30.26,East,90,3.8,5.8,90,0.00,CLR,,0.00,WeatherDisplay:10.37,2014-08-30 13:01:00,
2014-08-30 09:02:00,75.4,72.3,30.26,East,88,4.2,6.9,90,0.00,CLR,,0.00,WeatherDisplay:10.37,2014-08-30 13:02:00,
2014-08-30 09:04:00,75.5,72.4,30.26,ESE,103,0.9,4.6,90,0.00,CLR,,0.00,WeatherDisplay:10.37,2014-08-30 13:04:00,
2014-08-30 09:06:00,75.4,72.3,30.26,ESE,103,0.0,0.0,90,0.00,CLR,,0.00,WeatherDisplay:10.37,2014-08-30 13:06:00,
2014-08-30 09:07:00,75.4,72.3,30.26,ESE,103,0.0,0.0,90,0.00,CLR,,0.00,WeatherDisplay:10.37,2014-08-30 13:07:00,
2014-08-30 09:09:00,75.4,72.3,30.26,ESE,103,0.0,0.0,90,0.00,CLR,,0.00,WeatherDisplay:10.37,2014-08-30 13:09:00,
2014-08-30 09:10:00,75.4,72.3,30.26,ESE,103,0.0,0.0,90,0.00,CLR,,0.00,WeatherDisplay:10.37,2014-08-30 13:10:00,
2014-08-30 09:11:00,75.7,72.6,30.26,ESE,103,0.0,0.0,90,0.00,CLR,,0.00,WeatherDisplay:10.37,2014-08-30 13:11:00,
2014-08-30 09:12:00,75.5,72.4,30.26,ESE,103,0.0,0.0,90,0.00,CLR,,0.00,WeatherDisplay:10.37,2014-08-30 13:12:00,
2014-08-30 09:14:00,75.7,72.2,30.26,ESE,103,0.0,0.0,89,0.00,CLR,,0.00,WeatherDisplay:10.37,2014-08-30 13:14:00,
2014-08-30 09:15:00,75.5,72.0,30.26,ESE,103,0.0,0.0,89,0.00,CLR,,0.00,WeatherDisplay:10.37,2014-08-30 13:15:00,
2014-08-30 09:17:00,75.5,72.0,30.26,ESE,103,0.0,0.0,89,0.00,CLR,,0.00,WeatherDisplay:10.37,2014-08-30 13:17:00,
2014-08-30 09:18:00,75.5,72.0,30.26,ESE,103,0.0,0.0,89,0.00,CLR,,0.00,WeatherDisplay:10.37,2014-08-30 13:18:00,
2014-08-30 09:19:00,75.6,72.1,30.26,ESE,103,0.0,0.0,89,0.00,CLR,,0.00,WeatherDisplay:10.37,2014-08-30 13:19:00,
2014-08-30 09:20:00,75.8,72.3,30.26,ESE,103,0.0,0.0,89,0.00,CLR,,0.00,WeatherDisplay:10.37,2014-08-30 13:20:00,
2014-08-30 09:23:00,75.8,72.0,30.26,ESE,103,0.0,0.0,88,0.00,CLR,,0.00,WeatherDisplay:10.37,2014-08-30 13:23:00,
2014-08-30 09:24:00,75.9,72.1,30.26,ESE,103,0.0,0.0,88,0.00,CLR,,0.00,WeatherDisplay:10.37,2014-08-30 13:24:00,
2014-08-30 09:25:00,75.9,72.1,30.26,ESE,103,0.0,0.0,88,0.00,CLR,,0.00,WeatherDisplay:10.37,2014-08-30 13:25:00,
2014-08-30 09:28:00,75.9,72.1,30.26,ESE,103,0.0,0.0,88,0.00,CLR,,0.00,WeatherDisplay:10.37,2014-08-30 13:28:00,
2014-08-30 09:29:00,75.8,72.0,30.26,ESE,103,0.0,0.0,88,0.00,CLR,,0.00,WeatherDisplay:10.37,2014-08-30 13:29:00,
2014-08-30 09:30:00,76.0,72.2,30.26,ESE,103,0.0,0.0,88,0.00,CLR,,0.00,WeatherDisplay:10.37,2014-08-30 13:30:00,
2014-08-30 09:33:00,76.0,72.2,30.26,ESE,103,0.0,0.0,88,0.00,CLR,,0.00,WeatherDisplay:10.37,2014-08-30 13:33:00,
2014-08-30 09:34:00,76.1,71.9,30.26,ESE,103,0.0,0.0,87,0.00,CLR,,0.00,WeatherDisplay:10.37,2014-08-30 13:34:00,
2014-08-30 09:35:00,76.2,72.0,30.26,ESE,103,0.0,0.0,87,0.00,CLR,,0.00,WeatherDisplay:10.37,2014-08-30 13:35:00,
2014-08-30 09:38:00,76.3,72.1,30.26,ESE,103,0.0,0.0,87,0.00,CLR,,0.00,WeatherDisplay:10.37,2014-08-30 13:38:00,
2014-08-30 09:39:00,76.6,72.4,30.26,ESE,103,0.0,0.0,87,0.00,CLR,,0.00,WeatherDisplay:10.37,2014-08-30 13:39:00,
2014-08-30 09:40:00,76.4,71.9,30.26,ESE,103,0.0,0.0,86,0.00,CLR,,0.00,WeatherDisplay:10.37,2014-08-30 13:40:00,
2014-08-30 09:41:00,76.4,71.9,30.26,ESE,103,0.0,0.0,86,0.00,CLR,,0.00,WeatherDisplay:10.37,2014-08-30 13:41:00,
2014-08-30 09:43:00,76.5,71.7,30.26,ESE,112,1.5,4.8,85,0.00,CLR,,0.00,WeatherDisplay:10.37,2014-08-30 13:43:00,
2014-08-30 09:44:00,76.5,71.7,30.26,East,92,3.6,4.6,85,0.00,CLR,,0.00,WeatherDisplay:10.37,2014-08-30 13:44:00,
2014-08-30 09:45:00,76.8,71.9,30.26,East,92,2.1,4.6,85,0.00,CLR,,0.00,WeatherDisplay:10.37,2014-08-30 13:45:00,
2014-08-30 09:46:00,77.0,71.8,30.26,East,92,0.0,0.0,84,0.00,CLR,,0.00,WeatherDisplay:10.37,2014-08-30 13:46:00,
2014-08-30 09:48:00,77.0,71.8,30.26,SE,131,3.9,4.6,84,0.00,CLR,,0.00,WeatherDisplay:10.37,2014-08-30 13:48:00,
2014-08-30 09:49:00,76.9,71.7,30.26,SE,124,2.6,5.8,84,0.00,CLR,,0.00,WeatherDisplay:10.37,2014-08-30 13:49:00,
2014-08-30 09:50:00,77.4,72.2,30.26,SE,136,1.6,4.7,84,0.00,CLR,,0.00,WeatherDisplay:10.37,2014-08-30 13:50:00,
2014-08-30 09:51:00,77.7,72.1,30.26,SE,133,3.4,5.8,83,0.00,CLR,,0.00,WeatherDisplay:10.37,2014-08-30 13:51:00,
2014-08-30 09:52:00,77.2,71.6,30.26,ESE,116,1.5,6.2,83,0.00,CLR,,0.00,WeatherDisplay:10.37,2014-08-30 13:52:00,
2014-08-30 09:53:00,77.2,71.3,30.26,SE,126,1.8,5.8,82,0.00,CLR,,0.00,WeatherDisplay:10.37,2014-08-30 13:53:00,
2014-08-30 09:54:00,77.1,71.2,30.26,South,175,3.7,6.9,82,0.00,CLR,,0.00,WeatherDisplay:10.37,2014-08-30 13:54:00,
2014-08-30 09:55:00,77.2,71.3,30.26,SSE,151,3.8,6.9,82,0.00,CLR,,0.00,WeatherDisplay:10.37,2014-08-30 13:55:00,
2014-08-30 09:56:00,77.5,71.6,30.26,ESE,102,3.5,5.8,82,0.00,CLR,,0.00,WeatherDisplay:10.37,2014-08-30 13:56:00,
2014-08-30 09:58:00,77.3,71.4,30.25,ESE,102,4.2,5.8,82,0.00,CLR,,0.00,WeatherDisplay:10.37,2014-08-30 13:58:00,
2014-08-30 09:59:00,77.8,71.9,30.25,SE,145,1.1,4.6,82,0.00,CLR,,0.00,WeatherDisplay:10.37,2014-08-30 13:59:00,
2014-08-30 10:01:00,77.4,71.5,30.25,SE,145,0.0,0.0,82,0.00,CLR,,0.00,WeatherDisplay:10.37,2014-08-30 14:01:00,
2014-08-30 10:03:00,77.4,71.1,30.26,SE,145,0.0,0.0,81,0.00,CLR,,0.00,WeatherDisplay:10.37,2014-08-30 14:03:00,
2014-08-30 10:04:00,77.3,71.0,30.26,SE,145,0.0,0.0,81,0.00,CLR,,0.00,WeatherDisplay:10.37,2014-08-30 14:04:00,
2014-08-30 10:06:00,77.1,70.8,30.26,ESE,102,2.3,4.4,81,0.00,CLR,,0.00,WeatherDisplay:10.37,2014-08-30 14:06:00,
2014-08-30 10:07:00,77.7,71.4,30.26,ESE,103,4.4,5.8,81,0.00,CLR,,0.00,WeatherDisplay:10.37,2014-08-30 14:07:00,
2014-08-30 10:09:00,78.1,71.8,30.26,East,92,0.0,0.0,81,0.00,CLR,,0.00,WeatherDisplay:10.37,2014-08-30 14:09:00,
2014-08-30 10:10:00,77.8,71.1,30.26,East,92,0.0,0.0,80,0.00,CLR,,0.00,WeatherDisplay:10.37,2014-08-30 14:10:00,
2014-08-30 10:11:00,77.8,71.5,30.26,East,92,0.0,0.0,81,0.00,CLR,,0.00,WeatherDisplay:10.37,2014-08-30 14:11:00,
2014-08-30 10:12:00,78.0,71.3,30.26,East,92,0.0,0.0,80,0.00,CLR,,0.00,WeatherDisplay:10.37,2014-08-30 14:12:00,
2014-08-30 10:14:00,77.4,70.7,30.26,East,92,0.0,0.0,80,0.00,CLR,,0.00,WeatherDisplay:10.37,2014-08-30 14:14:00,
2014-08-30 10:15:00,77.4,70.7,30.26,SE,128,1.1,3.4,80,0.00,CLR,,0.00,WeatherDisplay:10.37,2014-08-30 14:15:00,
2014-08-30 10:16:00,77.7,71.0,30.26,SE,145,1.4,4.6,80,0.00,CLR,,0.00,WeatherDisplay:10.37,2014-08-30 14:16:00,
2014-08-30 10:17:00,78.3,71.2,30.26,South,185,1.6,4.6,79,0.00,CLR,,0.00,WeatherDisplay:10.37,2014-08-30 14:17:00,
2014-08-30 10:20:00,77.8,70.8,30.26,ESE,109,3.6,8.1,79,0.00,CLR,,0.00,WeatherDisplay:10.37,2014-08-30 14:20:00,
2014-08-30 10:21:00,77.9,70.9,30.26,SE,134,1.8,4.6,79,0.00,CLR,,0.00,WeatherDisplay:10.37,2014-08-30 14:21:00,
2014-08-30 10:22:00,77.5,70.8,30.26,SSE,157,2.0,4.7,80,0.00,CLR,,0.00,WeatherDisplay:10.37,2014-08-30 14:22:00,
2014-08-30 10:25:00,78.0,71.3,30.26,ESE,119,0.5,3.5,80,0.00,CLR,,0.00,WeatherDisplay:10.37,2014-08-30 14:25:00,
2014-08-30 10:27:00,77.5,70.8,30.26,ESE,121,1.3,4.7,80,0.00,CLR,,0.00,WeatherDisplay:10.37,2014-08-30 14:27:00,
2014-08-30 10:30:00,77.8,71.1,30.26,SE,128,4.6,6.9,80,0.00,CLR,,0.00,WeatherDisplay:10.37,2014-08-30 14:30:00,
2014-08-30 10:31:00,77.5,70.8,30.26,ESE,114,4.5,6.9,80,0.00,CLR,,0.00,WeatherDisplay:10.37,2014-08-30 14:31:00,
2014-08-30 10:32:00,77.3,70.6,30.26,ENE,66,2.5,6.9,80,0.00,CLR,,0.00,WeatherDisplay:10.37,2014-08-30 14:32:00,
2014-08-30 10:36:00,77.2,70.5,30.26,SE,143,3.5,6.1,80,0.00,CLR,,0.00,WeatherDisplay:10.37,2014-08-30 14:36:00,
2014-08-30 10:37:00,77.5,70.8,30.26,East,99,6.1,8.1,80,0.00,CLR,,0.00,WeatherDisplay:10.37,2014-08-30 14:37:00,
2014-08-30 10:38:00,77.3,70.3,30.26,ENE,65,3.7,6.9,79,0.00,CLR,,0.00,WeatherDisplay:10.37,2014-08-30 14:38:00,
2014-08-30 10:41:00,77.9,70.9,30.26,South,172,4.6,9.2,79,0.00,CLR,,0.00,WeatherDisplay:10.37,2014-08-30 14:41:00,
2014-08-30 10:42:00,77.5,70.5,30.26,SSE,164,4.1,5.8,79,0.00,CLR,,0.00,WeatherDisplay:10.37,2014-08-30 14:42:00,
2014-08-30 10:43:00,77.2,70.5,30.26,SE,133,2.5,5.8,80,0.00,CLR,,0.00,WeatherDisplay:10.37,2014-08-30 14:43:00,
2014-08-30 10:46:00,77.9,70.9,30.26,East,83,4.9,8.1,79,0.00,CLR,,0.00,WeatherDisplay:10.37,2014-08-30 14:46:00,
2014-08-30 10:48:00,78.1,71.1,30.26,East,83,5.7,6.9,79,0.00,CLR,,0.00,WeatherDisplay:10.37,2014-08-30 14:48:00,
2014-08-30 10:49:00,78.1,71.1,30.26,ENE,73,6.7,8.1,79,0.00,CLR,,0.00,WeatherDisplay:10.37,2014-08-30 14:49:00,